createdAt,value
2022-12-03T00:00:01.169Z,83.13
2022-12-03T00:02:28.744Z,88.03
2022-12-03T00:04:56.133Z,163.40
2022-12-03T00:07:23.620Z,117.22
2022-12-03T00:09:50.638Z,75.22
2022-12-03T00:12:17.926Z,82.20
2022-12-03T00:14:45.156Z,74.25
2022-12-03T00:17:12.538Z,85.35
2022-12-03T00:19:39.542Z,84.10
2022-12-03T00:22:06.895Z,65.25
2022-12-03T00:24:34.032Z,74.75
2022-12-03T00:27:01.490Z,81.75
2022-12-03T00:29:28.970Z,69.95
2022-12-03T00:31:56.280Z,66.22
2022-12-03T00:34:23.268Z,68.22
2022-12-03T00:36:50.545Z,82.05
2022-12-03T00:39:17.508Z,71.32
2022-12-03T00:41:44.832Z,91.80
2022-12-03T00:44:12.176Z,62.90
2022-12-03T00:46:39.622Z,82.43
2022-12-03T00:49:06.764Z,69.10
2022-12-03T00:51:35.872Z,89.63
2022-12-03T00:54:02.952Z,74.00
2022-12-03T00:56:30.284Z,76.85
2022-12-03T00:58:57.250Z,46.95
2022-12-03T01:01:24.632Z,49.28
2022-12-03T01:03:51.659Z,60.72
2022-12-03T01:06:18.902Z,63.83
2022-12-03T01:08:45.940Z,76.55
2022-12-03T01:11:31.967Z,63.63
2022-12-03T01:13:59.008Z,84.80
2022-12-03T01:16:26.353Z,62.20
2022-12-03T01:18:53.345Z,66.93
2022-12-03T01:21:20.705Z,58.05
2022-12-03T01:23:47.644Z,72.63
2022-12-03T01:26:14.952Z,137.73
2022-12-03T01:28:42.253Z,69.03
2022-12-03T01:31:28.427Z,53.28
2022-12-03T01:33:55.662Z,57.22
2022-12-03T01:36:22.980Z,68.07
2022-12-03T01:38:49.971Z,74.70
2022-12-03T01:41:19.100Z,66.88
2022-12-03T01:43:47.014Z,56.78
2022-12-03T01:46:19.855Z,60.33
2022-12-03T01:48:49.189Z,62.90
2022-12-03T01:51:16.544Z,63.78
2022-12-03T01:53:44.477Z,65.90
2022-12-03T01:56:16.829Z,69.65
2022-12-03T01:58:45.397Z,73.07
2022-12-03T02:01:15.608Z,59.95
2022-12-03T02:03:44.327Z,62.47
2022-12-03T02:06:18.080Z,63.55
2022-12-03T02:08:46.370Z,61.42
2022-12-03T02:11:22.264Z,61.78
2022-12-03T02:13:53.000Z,75.32
2022-12-03T02:16:20.875Z,66.25
2022-12-03T02:18:48.195Z,70.60
2022-12-03T02:21:24.596Z,62.50
2022-12-03T02:24:15.094Z,68.18
2022-12-03T02:26:42.709Z,64.30
2022-12-03T02:29:09.690Z,66.22
2022-12-03T02:31:37.801Z,69.43
2022-12-03T02:34:07.906Z,64.25
2022-12-03T02:36:36.638Z,63.50
2022-12-03T02:39:04.965Z,58.25
2022-12-03T02:41:51.141Z,65.75
2022-12-03T02:44:18.178Z,66.43
2022-12-03T02:46:45.474Z,69.85
2022-12-03T02:49:12.508Z,63.72
2022-12-03T02:51:39.784Z,68.53
2022-12-03T02:54:06.818Z,61.78
2022-12-03T02:56:34.169Z,54.58
2022-12-03T02:59:03.741Z,59.47
2022-12-03T03:01:31.228Z,52.33
2022-12-03T03:03:59.036Z,57.03
2022-12-03T03:06:26.664Z,59.50
2022-12-03T03:08:53.818Z,56.90
2022-12-03T03:11:21.075Z,64.68
2022-12-03T03:13:48.467Z,112.32
2022-12-03T03:16:15.802Z,67.07
2022-12-03T03:18:43.022Z,71.05
2022-12-03T03:21:13.430Z,65.35
2022-12-03T03:23:40.356Z,57.65
2022-12-03T03:26:09.871Z,62.50
2022-12-03T03:28:40.109Z,54.90
2022-12-03T03:31:09.480Z,57.25
2022-12-03T03:33:39.426Z,78.35
2022-12-03T03:36:07.558Z,65.93
2022-12-03T03:38:36.377Z,58.08
2022-12-03T03:41:06.038Z,60.90
2022-12-03T03:43:34.898Z,70.68
2022-12-03T03:46:04.491Z,59.08
2022-12-03T03:48:34.100Z,86.13
2022-12-03T03:51:08.940Z,79.28
2022-12-03T03:53:43.525Z,63.90
2022-12-03T03:56:11.370Z,65.28
2022-12-03T03:58:38.808Z,65.53
2022-12-03T04:01:06.683Z,66.75
2022-12-03T04:03:34.358Z,59.65
2022-12-03T04:06:01.684Z,65.18
2022-12-03T04:08:28.656Z,64.80
2022-12-03T04:11:14.345Z,63.75
2022-12-03T04:16:08.868Z,57.70
2022-12-03T04:18:45.060Z,58.70
2022-12-03T04:21:33.401Z,46.80
2022-12-03T04:24:01.113Z,65.95
2022-12-03T04:26:47.372Z,61.03
2022-12-03T04:29:18.305Z,65.50
2022-12-03T04:32:04.248Z,65.78
2022-12-03T04:34:50.489Z,70.10
2022-12-03T04:37:18.017Z,75.47
2022-12-03T04:39:45.024Z,64.63
2022-12-03T04:42:12.252Z,78.00
2022-12-03T04:44:39.286Z,72.57
2022-12-03T04:47:20.265Z,64.63
2022-12-03T04:49:50.394Z,70.70
2022-12-03T04:52:19.399Z,67.88
2022-12-03T04:54:46.682Z,71.93
2022-12-03T04:57:14.016Z,74.45
2022-12-03T04:59:41.564Z,69.82
2022-12-03T05:02:08.841Z,65.13
2022-12-03T05:04:35.984Z,63.88
2022-12-03T05:07:03.402Z,50.92
2022-12-03T05:09:30.400Z,62.55
2022-12-03T05:11:57.683Z,68.57
2022-12-03T05:14:24.666Z,70.97
2022-12-03T05:16:51.986Z,81.07
2022-12-03T05:19:18.990Z,64.13
2022-12-03T05:21:46.215Z,56.15
2022-12-03T05:24:14.594Z,66.57
2022-12-03T05:26:41.881Z,63.50
2022-12-03T05:29:08.865Z,70.10
2022-12-03T05:31:36.101Z,61.20
2022-12-03T05:34:03.298Z,61.05
2022-12-03T05:36:30.609Z,54.38
2022-12-03T05:38:57.597Z,64.38
2022-12-03T05:41:43.609Z,58.50
2022-12-03T05:44:10.535Z,60.05
2022-12-03T05:46:37.825Z,63.25
2022-12-03T05:49:04.889Z,66.85
2022-12-03T05:51:32.134Z,64.28
2022-12-03T05:53:59.042Z,74.10
2022-12-03T05:56:26.298Z,73.15
2022-12-03T05:58:53.269Z,74.35
2022-12-03T06:01:21.790Z,67.15
2022-12-03T06:03:48.880Z,73.43
2022-12-03T06:06:16.305Z,96.70
2022-12-03T06:08:43.502Z,74.82
2022-12-03T06:11:10.755Z,85.32
2022-12-03T06:13:37.783Z,87.00
2022-12-03T06:16:07.701Z,120.93
2022-12-03T06:18:34.682Z,78.80
2022-12-03T06:21:02.041Z,78.80
2022-12-03T06:23:29.028Z,69.55
2022-12-03T06:25:56.286Z,77.95
2022-12-03T06:28:23.284Z,72.63
2022-12-03T06:30:50.619Z,72.60
2022-12-03T06:33:17.604Z,66.05
2022-12-03T06:35:44.871Z,72.90
2022-12-03T06:38:11.873Z,89.10
2022-12-03T06:40:39.160Z,63.33
2022-12-03T06:43:06.144Z,67.72
2022-12-03T06:45:33.390Z,71.50
2022-12-03T06:48:00.405Z,53.20
2022-12-03T06:50:27.683Z,55.80
2022-12-03T06:52:54.698Z,57.55
2022-12-03T06:55:24.689Z,59.90
2022-12-03T06:57:51.664Z,62.05
2022-12-03T07:00:19.582Z,63.38
2022-12-03T07:02:46.581Z,66.95
2022-12-03T07:05:14.116Z,70.38
2022-12-03T07:07:41.187Z,81.35
2022-12-03T07:10:09.136Z,81.72
2022-12-03T07:12:36.132Z,82.55
2022-12-03T07:15:03.627Z,58.88
2022-12-03T07:17:31.666Z,67.13
2022-12-03T07:19:58.911Z,54.78
2022-12-03T07:22:25.945Z,58.67
2022-12-03T07:24:53.465Z,68.13
2022-12-03T07:27:20.542Z,55.80
2022-12-03T07:29:47.799Z,52.25
2022-12-03T07:32:14.749Z,70.03
2022-12-03T07:34:42.401Z,61.00
2022-12-03T07:37:09.611Z,72.93
2022-12-03T07:39:36.942Z,58.40
2022-12-03T07:42:04.117Z,56.58
2022-12-03T07:44:32.025Z,52.25
2022-12-03T07:46:59.012Z,52.80
2022-12-03T07:49:27.021Z,56.92
2022-12-03T07:51:54.733Z,62.10
2022-12-03T07:54:25.231Z,56.58
2022-12-03T07:56:57.993Z,72.65
2022-12-03T07:59:28.921Z,62.75
2022-12-03T08:01:56.269Z,66.43
2022-12-03T08:04:23.574Z,56.13
2022-12-03T08:06:50.680Z,53.83
2022-12-03T08:09:18.064Z,71.15
2022-12-03T08:11:48.365Z,74.95
2022-12-03T08:14:18.440Z,73.05
2022-12-03T08:16:47.292Z,73.00
2022-12-03T08:19:17.246Z,53.88
2022-12-03T08:21:44.816Z,77.57
2022-12-03T08:24:19.057Z,74.38
2022-12-03T08:26:47.899Z,134.05
2022-12-03T08:29:19.972Z,62.45
2022-12-03T08:31:52.337Z,55.22
2022-12-03T08:34:21.017Z,53.25
2022-12-03T08:36:51.854Z,82.57
2022-12-03T08:39:29.944Z,83.45
2022-12-03T08:42:38.775Z,55.50
2022-12-03T08:45:40.301Z,51.95
2022-12-03T08:48:25.805Z,80.70
2022-12-03T08:50:56.205Z,52.60
2022-12-03T08:53:28.841Z,71.70
2022-12-03T08:55:59.742Z,53.65
2022-12-03T08:58:33.875Z,77.32
2022-12-03T09:01:10.530Z,80.65
2022-12-03T09:04:03.305Z,74.93
2022-12-03T09:06:45.992Z,65.65
2022-12-03T09:09:12.942Z,47.13
2022-12-03T09:11:40.273Z,73.30
2022-12-03T09:14:07.263Z,67.10
2022-12-03T09:16:34.692Z,43.05
2022-12-03T09:19:01.793Z,50.40
2022-12-03T09:21:29.168Z,152.55
2022-12-03T09:23:57.421Z,57.78
2022-12-03T09:26:25.081Z,80.75
2022-12-03T09:28:52.074Z,36.65
2022-12-03T09:31:19.849Z,49.42
2022-12-03T09:33:46.884Z,49.17
2022-12-03T09:36:14.211Z,52.97
2022-12-03T09:38:46.111Z,60.60
2022-12-03T09:41:15.304Z,53.92
2022-12-03T09:44:03.418Z,50.40
2022-12-03T09:46:30.709Z,162.57
2022-12-03T09:48:58.028Z,66.63
2022-12-03T09:51:31.718Z,62.83
2022-12-03T09:54:01.210Z,62.45
2022-12-03T09:56:28.763Z,67.85
2022-12-03T09:58:56.184Z,55.85
2022-12-03T10:01:27.880Z,75.63
2022-12-03T10:03:57.200Z,94.85
2022-12-03T10:06:24.539Z,81.18
2022-12-03T10:08:55.326Z,75.65
2022-12-03T10:11:25.268Z,63.85
2022-12-03T10:13:54.846Z,50.10
2022-12-03T10:16:22.439Z,80.38
2022-12-03T10:18:53.048Z,75.55
2022-12-03T10:21:25.443Z,75.88
2022-12-03T10:24:22.148Z,68.85
2022-12-03T10:28:16.468Z,58.47
2022-12-03T10:30:55.394Z,72.93
2022-12-03T10:36:38.230Z,55.55
2022-12-03T10:39:07.384Z,61.30
2022-12-03T10:41:34.516Z,107.68
2022-12-03T10:44:21.185Z,77.05
2022-12-03T10:47:12.765Z,90.10
2022-12-03T10:49:41.893Z,80.90
2022-12-03T10:52:26.175Z,63.75
2022-12-03T10:54:56.787Z,59.92
2022-12-03T10:57:25.730Z,58.78
2022-12-03T10:59:53.053Z,53.15
2022-12-03T11:02:24.045Z,55.95
2022-12-03T11:04:52.244Z,51.17
2022-12-03T11:07:21.984Z,58.45
2022-12-03T11:09:51.963Z,53.58
2022-12-03T11:12:23.249Z,78.72
2022-12-03T11:14:53.465Z,68.22
2022-12-03T11:17:45.518Z,110.53
2022-12-03T11:21:10.293Z,57.85
2022-12-03T11:23:46.484Z,60.42
2022-12-03T11:30:02.925Z,69.82
2022-12-03T11:32:59.577Z,55.63
2022-12-03T11:35:42.960Z,51.20
2022-12-03T11:42:28.629Z,52.58
2022-12-03T11:48:25.767Z,71.85
2022-12-03T11:50:58.428Z,53.92
2022-12-03T11:53:27.732Z,58.67
2022-12-03T11:56:28.858Z,73.20
2022-12-03T11:59:04.577Z,46.38
2022-12-03T12:01:38.333Z,60.40
2022-12-03T12:04:07.905Z,63.37
2022-12-03T12:06:47.452Z,55.90
2022-12-03T12:09:52.923Z,50.65
2022-12-03T12:12:30.939Z,77.13
2022-12-03T12:14:59.223Z,61.55
2022-12-03T12:17:32.057Z,49.22
2022-12-03T12:20:24.707Z,85.05
2022-12-03T12:22:54.275Z,77.32
2022-12-03T12:25:30.547Z,66.75
2022-12-03T12:27:57.995Z,51.38
2022-12-03T12:30:25.034Z,107.18
2022-12-03T12:33:01.800Z,63.63
2022-12-03T12:35:32.881Z,50.50
2022-12-03T12:38:14.570Z,67.22
2022-12-03T12:40:45.835Z,46.88
2022-12-03T12:43:24.508Z,46.85
2022-12-03T12:45:56.957Z,50.67
2022-12-03T12:48:27.569Z,82.57
2022-12-03T12:51:13.434Z,85.53
2022-12-03T12:53:45.257Z,102.20
2022-12-03T12:56:25.665Z,71.88
2022-12-03T12:58:54.321Z,72.93
2022-12-03T13:01:32.127Z,72.18
2022-12-03T13:03:59.900Z,58.05
2022-12-03T13:06:30.190Z,73.00
2022-12-03T13:09:01.093Z,64.25
2022-12-03T13:11:41.248Z,92.05
2022-12-03T13:14:31.805Z,89.07
2022-12-03T13:17:01.396Z,67.32
2022-12-03T13:19:32.943Z,80.10
2022-12-03T13:22:19.141Z,75.93
2022-12-03T13:24:58.599Z,68.53
2022-12-03T13:27:30.000Z,56.92
2022-12-03T13:30:01.679Z,71.10
2022-12-03T13:32:33.945Z,63.92
2022-12-03T13:35:11.713Z,58.17
2022-12-03T13:37:39.005Z,55.75
2022-12-03T13:40:26.661Z,60.50
2022-12-03T13:42:54.918Z,58.33
2022-12-03T13:45:24.755Z,65.55
2022-12-03T13:48:04.428Z,60.03
2022-12-03T13:50:40.428Z,118.45
2022-12-03T13:53:24.139Z,64.60
2022-12-03T13:56:14.563Z,52.17
2022-12-03T13:58:41.755Z,68.47
2022-12-03T14:01:09.116Z,69.75
2022-12-03T14:03:36.128Z,79.57
2022-12-03T14:06:03.465Z,84.57
2022-12-03T14:08:33.153Z,87.30
2022-12-03T14:11:01.093Z,96.65
2022-12-03T14:13:28.437Z,152.25
2022-12-03T14:15:55.820Z,111.40
2022-12-03T14:18:23.014Z,95.03
2022-12-03T14:20:50.290Z,105.22
2022-12-03T14:23:17.482Z,67.10
2022-12-03T14:25:44.973Z,111.05
2022-12-03T14:28:12.048Z,81.72
2022-12-03T14:30:39.410Z,79.18
2022-12-03T14:33:08.669Z,70.95
2022-12-03T14:35:36.193Z,85.90
2022-12-03T14:38:03.149Z,78.68
2022-12-03T14:40:31.496Z,85.05
2022-12-03T14:43:00.008Z,71.63
2022-12-03T14:45:29.892Z,103.90
2022-12-03T14:47:56.943Z,74.55
2022-12-03T14:50:26.137Z,66.75
2022-12-03T14:52:53.427Z,67.70
2022-12-03T14:55:20.737Z,48.60
2022-12-03T14:57:47.797Z,66.22
2022-12-03T15:00:15.603Z,60.25
2022-12-03T15:02:42.836Z,54.38
2022-12-03T15:05:10.508Z,52.28
2022-12-03T15:07:39.395Z,62.70
2022-12-03T15:10:09.235Z,54.75
2022-12-03T15:12:36.340Z,58.75
2022-12-03T15:15:04.114Z,94.82
2022-12-03T15:17:32.290Z,94.90
2022-12-03T15:19:59.824Z,69.00
2022-12-03T15:26:54.145Z,83.03
2022-12-03T15:29:21.736Z,106.47
2022-12-03T15:31:48.950Z,95.93
2022-12-03T15:34:22.917Z,63.22
2022-12-03T15:36:51.221Z,72.50
2022-12-03T15:40:13.360Z,61.35
2022-12-03T15:42:40.411Z,60.35
2022-12-03T15:45:13.473Z,63.80
2022-12-03T15:48:08.908Z,69.78
2022-12-03T15:50:40.133Z,53.40
2022-12-03T15:53:27.872Z,69.95
2022-12-03T15:56:28.006Z,71.65
2022-12-03T15:58:55.203Z,58.83
2022-12-03T16:01:23.237Z,89.53
2022-12-03T16:04:01.824Z,60.47
2022-12-03T16:06:29.085Z,69.80
2022-12-03T16:09:14.129Z,76.32
2022-12-03T16:11:41.411Z,61.22
2022-12-03T16:14:08.462Z,80.55
2022-12-03T16:16:49.831Z,141.75
2022-12-03T16:19:34.895Z,61.47
2022-12-03T16:22:02.238Z,73.78
2022-12-03T16:24:29.306Z,70.22
2022-12-03T16:26:56.685Z,75.50
2022-12-03T16:29:23.743Z,118.20
2022-12-03T16:32:16.707Z,95.35
2022-12-03T16:34:43.743Z,62.67
2022-12-03T16:37:14.929Z,76.20
2022-12-03T16:39:47.927Z,93.60
2022-12-03T16:42:17.551Z,73.63
2022-12-03T16:45:04.935Z,129.02
2022-12-03T16:47:36.002Z,91.40
2022-12-03T16:53:00.938Z,67.57
2022-12-03T16:55:28.124Z,107.82
2022-12-03T16:57:55.935Z,74.90
2022-12-03T17:00:23.001Z,101.65
2022-12-03T17:02:50.316Z,61.35
2022-12-03T17:05:17.698Z,70.90
2022-12-03T17:07:45.479Z,78.78
2022-12-03T17:10:12.705Z,66.50
2022-12-03T17:13:07.676Z,54.47
2022-12-03T17:15:27.307Z,69.30
2022-12-03T17:17:54.897Z,99.80
2022-12-03T17:20:22.119Z,101.38
2022-12-03T17:22:49.600Z,72.90
2022-12-03T17:25:16.960Z,87.25
2022-12-03T17:27:46.642Z,101.68
2022-12-03T17:30:17.010Z,70.05
2022-12-03T17:32:46.520Z,79.15
2022-12-03T17:35:13.564Z,117.75
2022-12-03T17:37:40.861Z,73.35
2022-12-03T17:40:10.289Z,92.95
2022-12-03T17:42:37.762Z,95.18
2022-12-03T17:45:05.769Z,88.82
2022-12-03T17:47:33.111Z,72.70
2022-12-03T17:50:00.146Z,49.17
2022-12-03T17:52:27.620Z,86.05
2022-12-03T17:55:10.407Z,89.95
2022-12-03T17:58:42.266Z,86.87
2022-12-03T18:01:10.511Z,84.72
2022-12-03T18:03:38.126Z,85.88
2022-12-03T18:06:06.260Z,89.25
2022-12-03T18:08:33.651Z,101.28
2022-12-03T18:11:01.116Z,81.80
2022-12-03T18:13:28.384Z,102.30
2022-12-03T18:15:56.010Z,88.13
2022-12-03T18:18:23.581Z,154.00
2022-12-03T18:20:52.971Z,83.88
2022-12-03T18:23:20.424Z,95.88
2022-12-03T18:25:47.535Z,101.80
2022-12-03T18:28:14.918Z,93.75
2022-12-03T18:30:44.049Z,84.40
2022-12-03T18:33:15.614Z,107.63
2022-12-03T18:35:44.026Z,104.80
2022-12-03T18:38:16.027Z,85.30
2022-12-03T18:40:44.670Z,126.45
2022-12-03T18:43:14.132Z,103.63
2022-12-03T18:45:41.868Z,103.22
2022-12-03T18:48:14.556Z,101.22
2022-12-03T18:50:44.993Z,117.75
2022-12-03T18:53:14.255Z,81.28
2022-12-03T18:55:43.062Z,94.88
2022-12-03T18:58:10.603Z,89.22
2022-12-03T19:00:38.518Z,95.72
2022-12-03T19:03:07.139Z,103.45
2022-12-03T19:05:35.153Z,97.47
2022-12-03T19:08:03.276Z,108.07
2022-12-03T19:10:33.176Z,108.90
2022-12-03T19:13:00.456Z,134.45
2022-12-03T19:15:27.488Z,118.18
2022-12-03T19:17:55.004Z,123.85
2022-12-03T19:20:22.146Z,101.57
2022-12-03T19:22:49.677Z,101.32
2022-12-03T19:25:16.915Z,106.97
2022-12-03T19:27:44.467Z,94.72
2022-12-03T19:30:12.232Z,97.45
2022-12-03T19:32:39.593Z,95.18
2022-12-03T19:35:07.796Z,94.63
2022-12-03T19:37:35.125Z,96.78
2022-12-03T19:40:02.268Z,87.18
2022-12-03T19:42:31.116Z,92.50
2022-12-03T19:44:58.108Z,78.22
2022-12-03T19:47:25.743Z,99.88
2022-12-03T19:49:53.573Z,109.75
2022-12-03T19:52:21.316Z,123.10
2022-12-03T19:54:51.101Z,130.00
2022-12-03T19:57:23.222Z,117.63
2022-12-03T19:59:50.800Z,109.97
2022-12-03T20:02:18.350Z,130.38
2022-12-03T20:04:45.425Z,108.22
2022-12-03T20:07:12.950Z,122.45
2022-12-03T20:09:39.886Z,102.55
2022-12-03T20:12:07.294Z,123.13
2022-12-03T20:14:34.273Z,125.32
2022-12-03T20:17:01.723Z,100.80
2022-12-03T20:19:28.771Z,123.85
2022-12-03T20:22:02.052Z,114.00
2022-12-03T20:24:30.150Z,110.40
2022-12-03T20:26:57.474Z,113.00
2022-12-03T20:29:24.627Z,115.57
2022-12-03T20:31:52.119Z,218.13
2022-12-03T20:34:19.184Z,109.07
2022-12-03T20:36:46.836Z,150.25
2022-12-03T20:39:13.859Z,172.15
2022-12-03T20:41:41.170Z,200.05
2022-12-03T20:44:08.469Z,129.18
2022-12-03T20:46:36.415Z,173.75
2022-12-03T20:49:04.221Z,137.40
2022-12-03T20:51:32.032Z,107.88
2022-12-03T20:54:00.367Z,123.45
2022-12-03T20:56:31.506Z,117.95
2022-12-03T20:59:06.796Z,132.38
2022-12-03T21:01:36.151Z,113.97
2022-12-03T21:04:06.275Z,120.50
2022-12-03T21:06:35.889Z,140.60
2022-12-03T21:09:05.618Z,103.07
2022-12-03T21:11:33.942Z,105.88
2022-12-03T21:14:00.978Z,85.70
2022-12-03T21:17:06.126Z,114.43
2022-12-03T21:19:20.374Z,126.85
2022-12-03T21:21:51.289Z,112.25
2022-12-03T21:24:18.530Z,122.43
2022-12-03T21:26:45.868Z,115.45
2022-12-03T21:29:13.005Z,169.68
2022-12-03T21:31:40.340Z,124.68
2022-12-03T21:34:09.110Z,147.30
2022-12-03T21:36:36.615Z,134.82
2022-12-03T21:39:05.129Z,131.82
2022-12-03T21:41:32.726Z,120.85
2022-12-03T21:43:59.781Z,129.23
2022-12-03T21:47:12.620Z,138.57
2022-12-03T21:49:19.364Z,111.25
2022-12-03T21:51:47.010Z,169.45
2022-12-03T21:54:14.270Z,140.82
2022-12-03T21:56:41.557Z,129.13
2022-12-03T21:59:08.596Z,115.88
2022-12-03T22:01:36.003Z,123.50
2022-12-03T22:04:03.144Z,113.80
2022-12-03T22:06:30.444Z,134.43
2022-12-03T22:08:57.452Z,125.07
2022-12-03T22:11:25.241Z,118.65
2022-12-03T22:13:52.389Z,139.82
2022-12-03T22:16:21.294Z,141.52
2022-12-03T22:18:51.321Z,137.25
2022-12-03T22:21:20.332Z,136.20
2022-12-03T22:23:47.543Z,146.43
2022-12-03T22:26:19.203Z,154.65
2022-12-03T22:28:47.929Z,143.73
2022-12-03T22:31:16.449Z,132.57
2022-12-03T22:33:45.637Z,109.50
2022-12-03T22:36:20.104Z,138.27
2022-12-03T22:38:50.244Z,134.57
2022-12-03T22:41:19.121Z,123.78
2022-12-03T22:43:47.430Z,119.38
2022-12-03T22:46:15.403Z,137.63
2022-12-03T22:48:44.864Z,114.28
2022-12-03T22:51:15.496Z,134.68
2022-12-03T22:53:42.827Z,143.45
2022-12-03T22:56:10.321Z,120.70
2022-12-03T22:58:39.001Z,125.07
2022-12-03T23:01:07.358Z,121.45
2022-12-03T23:03:34.602Z,125.25
2022-12-03T23:06:08.251Z,132.10
2022-12-03T23:08:35.240Z,112.63
2022-12-03T23:11:02.724Z,120.68
2022-12-03T23:13:29.772Z,119.25
2022-12-03T23:15:57.165Z,123.68
2022-12-03T23:18:24.194Z,133.85
2022-12-03T23:20:53.814Z,134.63
2022-12-03T23:23:22.376Z,148.85
2022-12-03T23:26:04.860Z,139.55
2022-12-03T23:28:34.376Z,154.60
2022-12-03T23:31:05.667Z,121.32
2022-12-03T23:33:37.900Z,145.18
2022-12-03T23:36:06.661Z,124.65
2022-12-03T23:38:33.799Z,117.22
2022-12-03T23:41:12.848Z,112.78
2022-12-03T23:43:42.769Z,134.75
2022-12-03T23:46:15.880Z,77.57
2022-12-03T23:48:43.250Z,75.63
2022-12-03T23:51:16.564Z,115.75
2022-12-03T23:53:45.048Z,122.32
2022-12-03T23:56:18.285Z,124.53
2022-12-03T23:58:46.391Z,113.82
